createdAt,value
2017-10-29T00:00:18.701Z,1002.59
2017-10-29T00:00:59.252Z,1002.52
2017-10-29T00:01:39.820Z,1002.62
2017-10-29T00:02:20.355Z,1002.61
2017-10-29T00:03:00.939Z,1002.52
2017-10-29T00:03:41.473Z,1002.53
2017-10-29T00:04:22.022Z,1002.61
2017-10-29T00:05:02.546Z,1002.53
2017-10-29T00:05:43.070Z,1002.54
2017-10-29T00:06:23.666Z,1002.43
2017-10-29T00:07:04.178Z,1002.42
2017-10-29T00:07:44.734Z,1002.41
2017-10-29T00:08:25.297Z,1002.34
2017-10-29T00:09:05.883Z,1002.26
2017-10-29T00:09:46.451Z,1002.31
2017-10-29T00:10:26.977Z,1002.17
2017-10-29T00:11:07.491Z,1002.14
2017-10-29T00:11:48.049Z,1002.17
2017-10-29T00:12:28.602Z,1002.11
2017-10-29T00:13:09.118Z,1002.2
2017-10-29T00:13:49.634Z,1002.13
2017-10-29T00:14:30.472Z,1002.07
2017-10-29T00:15:11.024Z,1002.14
2017-10-29T00:15:51.544Z,1002.1
2017-10-29T00:16:32.102Z,1002
2017-10-29T00:17:12.664Z,1002.02
2017-10-29T00:17:53.240Z,1001.92
2017-10-29T00:18:33.740Z,1001.87
2017-10-29T00:19:14.302Z,1001.81
2017-10-29T00:19:54.835Z,1001.86
2017-10-29T00:20:35.343Z,1001.75
2017-10-29T00:21:15.919Z,1001.75
2017-10-29T00:21:56.496Z,1001.82
2017-10-29T00:22:36.991Z,1001.73
2017-10-29T00:23:17.574Z,1001.85
2017-10-29T00:23:58.087Z,1001.8
2017-10-29T00:24:38.613Z,1001.81
2017-10-29T00:25:19.153Z,1001.82
2017-10-29T00:25:59.698Z,1001.71
2017-10-29T00:26:40.393Z,1001.5
2017-10-29T00:27:20.875Z,1001.52
2017-10-29T00:28:01.406Z,1001.61
2017-10-29T00:28:41.985Z,1001.62
2017-10-29T00:29:22.519Z,1001.52
2017-10-29T00:30:03.041Z,1001.55
2017-10-29T00:30:43.617Z,1001.52
2017-10-29T00:31:24.126Z,1001.5
2017-10-29T00:32:04.643Z,1001.39
2017-10-29T00:32:45.166Z,1001.33
2017-10-29T00:33:25.717Z,1001.36
2017-10-29T00:34:06.253Z,1001.29
2017-10-29T00:34:46.767Z,1001.36
2017-10-29T00:35:27.326Z,1001.3
2017-10-29T00:36:07.917Z,1001.38
2017-10-29T00:36:48.551Z,1001.29
2017-10-29T00:37:29.054Z,1001.34
2017-10-29T00:38:09.582Z,1001.13
2017-10-29T00:38:50.100Z,1001.21
2017-10-29T00:39:30.629Z,1001.29
2017-10-29T00:40:11.166Z,1001.09
2017-10-29T00:40:51.750Z,1001.2
2017-10-29T00:41:32.265Z,1001.12
2017-10-29T00:42:12.824Z,1001.09
2017-10-29T00:42:53.361Z,1001.09
2017-10-29T00:43:33.894Z,1001.04
2017-10-29T00:44:14.419Z,1001.01
2017-10-29T00:44:54.981Z,1001.1
2017-10-29T00:45:35.473Z,1000.95
2017-10-29T00:46:16.009Z,1000.92
2017-10-29T00:46:56.536Z,1001.03
2017-10-29T00:47:37.130Z,1000.96
2017-10-29T00:48:17.705Z,1001.02
2017-10-29T00:48:58.206Z,1001
2017-10-29T00:49:38.764Z,1000.99
2017-10-29T00:50:19.328Z,1000.95
2017-10-29T00:50:59.829Z,1000.92
2017-10-29T00:51:40.403Z,1001.19
2017-10-29T00:52:20.874Z,1001.12
2017-10-29T00:53:01.420Z,1001.18
2017-10-29T00:53:41.964Z,1001.21
2017-10-29T00:54:22.487Z,1001.29
2017-10-29T00:55:03.068Z,1001.19
2017-10-29T00:55:43.604Z,1001.26
2017-10-29T00:56:24.157Z,1001.27
2017-10-29T00:57:04.752Z,1001.09
2017-10-29T00:57:45.271Z,1001.21
2017-10-29T00:58:25.889Z,1001.21
2017-10-29T00:59:06.405Z,1001.22
2017-10-29T00:59:46.975Z,1001.21
2017-10-29T01:00:27.502Z,1001.27
2017-10-29T01:01:08.065Z,1001.21
2017-10-29T01:01:48.631Z,1001.22
2017-10-29T01:02:29.143Z,1001.17
2017-10-29T01:03:09.764Z,1001.22
2017-10-29T01:03:50.282Z,1001.24
2017-10-29T01:04:30.809Z,1001.21
2017-10-29T01:05:11.349Z,1001.19
2017-10-29T01:05:51.938Z,1001.32
2017-10-29T01:06:32.422Z,1001.22
2017-10-29T01:07:13.000Z,1001.23
2017-10-29T01:07:53.552Z,1001.25
2017-10-29T01:08:34.080Z,1001.2
2017-10-29T01:09:14.621Z,1001.2
2017-10-29T01:09:55.136Z,1001.35
2017-10-29T01:10:35.695Z,1001.2
2017-10-29T01:11:16.187Z,1001.15
2017-10-29T01:11:56.734Z,1001.12
2017-10-29T01:12:37.254Z,1001.16
2017-10-29T01:13:17.798Z,1001.17
2017-10-29T01:13:58.336Z,1001.11
2017-10-29T01:14:38.872Z,1001.2
2017-10-29T01:15:19.437Z,1001.17
2017-10-29T01:15:59.957Z,1001.24
2017-10-29T01:16:40.499Z,1001.3
2017-10-29T01:17:21.034Z,1001.35
2017-10-29T01:18:01.571Z,1001.26
2017-10-29T01:18:42.088Z,1001.26
2017-10-29T01:19:22.597Z,1001.25
2017-10-29T01:20:03.185Z,1001.22
2017-10-29T01:20:43.741Z,1001.23
2017-10-29T01:21:24.304Z,1001.21
2017-10-29T01:22:04.784Z,1001.27
2017-10-29T01:22:45.328Z,1001.22
2017-10-29T01:23:25.889Z,1001.31
2017-10-29T01:24:06.455Z,1001.18
2017-10-29T01:24:46.980Z,1001.22
2017-10-29T01:25:27.526Z,1001.22
2017-10-29T01:26:08.039Z,1001.19
2017-10-29T01:26:48.586Z,1001.13
2017-10-29T01:27:29.140Z,1001.11
2017-10-29T01:28:09.684Z,1001.08
2017-10-29T01:28:50.156Z,1001.16
2017-10-29T01:29:30.717Z,1001.09
2017-10-29T01:30:11.244Z,1000.8
2017-10-29T01:30:51.766Z,1000.99
2017-10-29T01:31:32.342Z,1000.99
2017-10-29T01:32:12.916Z,1000.97
2017-10-29T01:32:53.420Z,1000.92
2017-10-29T01:33:33.939Z,1000.9
2017-10-29T01:34:14.517Z,1000.88
2017-10-29T01:34:55.083Z,1000.91
2017-10-29T01:35:35.603Z,1000.86
2017-10-29T01:36:16.127Z,1000.91
2017-10-29T01:36:56.695Z,1000.81
2017-10-29T01:37:37.211Z,1000.88
2017-10-29T01:38:17.763Z,1000.75
2017-10-29T01:38:58.308Z,1000.73
2017-10-29T01:39:38.824Z,1000.64
2017-10-29T01:40:19.395Z,1000.61
2017-10-29T01:40:59.918Z,1000.6
2017-10-29T01:41:40.466Z,1000.55
2017-10-29T01:42:20.996Z,1000.65
2017-10-29T01:43:01.542Z,1000.55
2017-10-29T01:43:42.037Z,1000.58
2017-10-29T01:44:22.565Z,1000.38
2017-10-29T01:45:03.660Z,1000.47
2017-10-29T01:45:44.193Z,1000.38
2017-10-29T01:46:24.719Z,1000.43
2017-10-29T01:47:05.255Z,1000.4
2017-10-29T01:47:45.801Z,1000.36
2017-10-29T01:48:26.353Z,1000.23
2017-10-29T01:49:07.012Z,1000.24
2017-10-29T01:49:47.502Z,1000.34
2017-10-29T01:50:28.016Z,1000.32
2017-10-29T01:51:08.576Z,1000.35
2017-10-29T01:51:49.106Z,1000.38
2017-10-29T01:52:29.648Z,1000.27
2017-10-29T01:53:10.207Z,1000.28
2017-10-29T01:53:50.725Z,1000.28
2017-10-29T01:54:31.265Z,1000.25
2017-10-29T01:55:11.809Z,1000.22
2017-10-29T01:55:52.314Z,1000.15
2017-10-29T01:56:32.833Z,1000.14
2017-10-29T01:57:13.396Z,1000.15
2017-10-29T01:57:53.906Z,1000.19
2017-10-29T01:58:34.440Z,1000.12
2017-10-29T01:59:14.978Z,1000.1
2017-10-29T01:59:55.540Z,1000.17
2017-10-29T02:00:36.103Z,1000.09
2017-10-29T02:01:16.654Z,1000.14
2017-10-29T02:01:57.162Z,1000.18
2017-10-29T02:02:37.672Z,1000.19
2017-10-29T02:03:18.278Z,1000.19
2017-10-29T02:03:58.810Z,1000.15
2017-10-29T02:04:39.355Z,1000.3
2017-10-29T02:05:19.861Z,1000.22
2017-10-29T02:06:00.418Z,1000.06
2017-10-29T02:06:40.954Z,1000.02
2017-10-29T02:07:21.515Z,1000.04
2017-10-29T02:08:02.092Z,1000.09
2017-10-29T02:08:42.639Z,999.97
2017-10-29T02:09:23.185Z,1000.11
2017-10-29T02:10:03.776Z,1000.12
2017-10-29T02:10:44.275Z,1000.11
2017-10-29T02:11:24.814Z,1000.1
2017-10-29T02:12:05.335Z,1000.12
2017-10-29T02:12:45.890Z,1000.07
2017-10-29T02:13:26.436Z,1000.12
2017-10-29T02:14:06.953Z,999.93
2017-10-29T02:14:47.461Z,1000.02
2017-10-29T02:15:28.002Z,999.95
2017-10-29T02:16:08.532Z,999.99
2017-10-29T02:16:49.062Z,999.8
2017-10-29T02:17:29.626Z,999.89
2017-10-29T02:18:10.173Z,999.99
2017-10-29T02:18:50.692Z,999.97
2017-10-29T02:19:31.256Z,1000.18
2017-10-29T02:20:11.766Z,1000.03
2017-10-29T02:20:52.297Z,999.98
2017-10-29T02:21:32.846Z,999.88
2017-10-29T02:22:13.354Z,999.8
2017-10-29T02:22:53.904Z,999.76
2017-10-29T02:23:34.456Z,999.66
2017-10-29T02:24:14.968Z,999.69
2017-10-29T02:24:55.502Z,999.72
2017-10-29T02:25:36.069Z,999.67
2017-10-29T02:26:16.637Z,999.67
2017-10-29T02:26:57.236Z,999.64
2017-10-29T02:27:37.814Z,999.78
2017-10-29T02:28:18.319Z,999.68
2017-10-29T02:28:58.840Z,999.83
2017-10-29T02:29:39.376Z,999.8
2017-10-29T02:30:19.863Z,999.75
2017-10-29T02:31:00.393Z,999.8
2017-10-29T02:31:40.905Z,999.75
2017-10-29T02:32:21.475Z,999.68
2017-10-29T02:33:02.008Z,999.68
2017-10-29T02:33:42.545Z,999.7
2017-10-29T02:34:23.088Z,999.84
2017-10-29T02:35:03.597Z,999.8
2017-10-29T02:35:44.147Z,999.77
2017-10-29T02:36:24.689Z,999.76
2017-10-29T02:37:05.228Z,999.75
2017-10-29T02:37:45.761Z,999.82
2017-10-29T02:38:26.260Z,999.69
2017-10-29T02:39:06.797Z,999.67
2017-10-29T02:39:47.420Z,999.75
2017-10-29T02:40:27.897Z,999.74
2017-10-29T02:41:08.441Z,999.58
2017-10-29T02:41:49.011Z,999.77
2017-10-29T02:42:29.608Z,999.62
2017-10-29T02:43:10.173Z,999.64
2017-10-29T02:43:50.671Z,999.71
2017-10-29T02:44:32.119Z,999.65
2017-10-29T02:45:13.703Z,999.67
2017-10-29T02:45:54.246Z,999.62
2017-10-29T02:46:34.787Z,999.57
2017-10-29T02:47:15.325Z,999.62
2017-10-29T02:47:55.912Z,999.59
2017-10-29T02:48:36.354Z,999.59
2017-10-29T02:49:16.929Z,999.62
2017-10-29T02:49:57.441Z,999.57
2017-10-29T02:50:37.993Z,999.58
2017-10-29T02:51:18.505Z,999.54
2017-10-29T02:51:59.047Z,999.5
2017-10-29T02:52:39.554Z,999.42
2017-10-29T02:53:20.104Z,999.39
2017-10-29T02:54:00.646Z,999.38
2017-10-29T02:54:41.178Z,999.38
2017-10-29T02:55:21.741Z,999.33
2017-10-29T02:56:02.276Z,999.34
2017-10-29T02:56:42.815Z,999.4
2017-10-29T02:57:23.349Z,999.2
2017-10-29T02:58:03.856Z,999.28
2017-10-29T02:58:44.378Z,999.28
2017-10-29T02:59:24.940Z,999.31
2017-10-29T03:00:05.511Z,999.33
2017-10-29T03:00:45.992Z,999.32
2017-10-29T03:01:26.590Z,999.24
2017-10-29T03:02:07.082Z,999.35
2017-10-29T03:02:47.595Z,999.25
2017-10-29T03:03:28.150Z,999.16
2017-10-29T03:04:08.689Z,999.24
2017-10-29T03:04:49.236Z,999.31
2017-10-29T03:05:29.804Z,999.33
2017-10-29T03:06:10.324Z,999.37
2017-10-29T03:06:50.817Z,999.28
2017-10-29T03:07:31.339Z,999.3
2017-10-29T03:08:11.898Z,999.41
2017-10-29T03:08:52.492Z,999.34
2017-10-29T03:09:33.003Z,999.3
2017-10-29T03:10:13.662Z,999.23
2017-10-29T03:10:54.143Z,999.36
2017-10-29T03:11:34.713Z,999.3
2017-10-29T03:12:15.212Z,999.38
2017-10-29T03:12:55.778Z,999.35
2017-10-29T03:13:36.295Z,999.35
2017-10-29T03:14:16.862Z,999.32
2017-10-29T03:14:57.407Z,999.37
2017-10-29T03:15:37.924Z,999.32
2017-10-29T03:16:18.489Z,999.38
2017-10-29T03:16:59.064Z,999.43
2017-10-29T03:17:39.595Z,999.28
2017-10-29T03:18:20.202Z,999.33
2017-10-29T03:19:00.664Z,999.34
2017-10-29T03:19:41.185Z,999.31
2017-10-29T03:20:21.716Z,999.32
2017-10-29T03:21:02.242Z,999.41
2017-10-29T03:21:42.816Z,999.44
2017-10-29T03:22:23.373Z,999.35
2017-10-29T03:23:03.974Z,999.45
2017-10-29T03:23:44.494Z,999.45
2017-10-29T03:24:25.093Z,999.42
2017-10-29T03:25:05.562Z,999.47
2017-10-29T03:25:46.087Z,999.41
2017-10-29T03:26:26.675Z,999.4
2017-10-29T03:27:07.171Z,999.43
2017-10-29T03:27:47.767Z,999.35
2017-10-29T03:28:28.196Z,999.44
2017-10-29T03:29:08.766Z,999.52
2017-10-29T03:29:49.280Z,999.35
2017-10-29T03:30:29.815Z,999.46
2017-10-29T03:31:10.346Z,999.42
2017-10-29T03:31:50.830Z,999.48
2017-10-29T03:32:31.367Z,999.41
2017-10-29T03:33:11.871Z,999.37
2017-10-29T03:33:52.466Z,999.38
2017-10-29T03:34:32.999Z,999.33
2017-10-29T03:35:13.559Z,999.37
2017-10-29T03:35:54.095Z,999.31
2017-10-29T03:36:34.655Z,999.27
2017-10-29T03:37:15.157Z,999.28
2017-10-29T03:37:55.698Z,999.31
2017-10-29T03:38:36.207Z,999.35
2017-10-29T03:39:16.768Z,999.33
2017-10-29T03:39:57.288Z,999.31
2017-10-29T03:40:37.807Z,999.21
2017-10-29T03:41:18.336Z,999.25
2017-10-29T03:41:58.858Z,999.22
2017-10-29T03:42:39.380Z,999.26
2017-10-29T03:43:19.917Z,999.13
2017-10-29T03:44:00.473Z,999.2
2017-10-29T03:44:41.013Z,999.14
2017-10-29T03:45:21.541Z,999.17
2017-10-29T03:46:02.104Z,999
2017-10-29T03:46:42.637Z,998.97
2017-10-29T03:47:23.174Z,998.91
2017-10-29T03:48:03.705Z,998.91
2017-10-29T03:48:44.257Z,998.95
2017-10-29T03:49:24.794Z,998.87
2017-10-29T03:50:05.326Z,998.88
2017-10-29T03:50:45.875Z,998.97
2017-10-29T03:51:26.355Z,998.97
2017-10-29T03:52:06.904Z,998.93
2017-10-29T03:52:47.419Z,998.91
2017-10-29T03:53:27.966Z,998.91
2017-10-29T03:54:08.492Z,998.88
2017-10-29T03:54:49.017Z,998.9
2017-10-29T03:55:29.582Z,998.91
2017-10-29T03:56:10.114Z,998.74
2017-10-29T03:56:50.725Z,998.8
2017-10-29T03:57:31.275Z,998.76
2017-10-29T03:58:11.786Z,998.77
2017-10-29T03:58:52.352Z,998.69
2017-10-29T03:59:32.875Z,998.65
2017-10-29T04:00:13.425Z,998.67
2017-10-29T04:00:53.957Z,998.72
2017-10-29T04:01:34.534Z,998.76
2017-10-29T04:02:15.039Z,998.59
2017-10-29T04:02:55.601Z,998.56
2017-10-29T04:03:36.114Z,998.54
2017-10-29T04:04:16.648Z,998.5
2017-10-29T04:04:57.212Z,998.51
2017-10-29T04:05:37.751Z,998.63
2017-10-29T04:06:18.362Z,998.57
2017-10-29T04:06:58.856Z,998.63
2017-10-29T04:07:39.356Z,998.65
2017-10-29T04:08:19.904Z,998.56
2017-10-29T04:09:00.444Z,998.68
2017-10-29T04:09:40.973Z,998.59
2017-10-29T04:10:21.560Z,998.71
2017-10-29T04:11:02.101Z,998.63
2017-10-29T04:11:42.607Z,998.6
2017-10-29T04:12:23.130Z,998.64
2017-10-29T04:13:03.666Z,998.6
2017-10-29T04:13:44.201Z,998.56
2017-10-29T04:14:24.706Z,998.51
2017-10-29T04:15:05.263Z,998.55
2017-10-29T04:15:45.810Z,998.52
2017-10-29T04:16:26.338Z,998.63
2017-10-29T04:17:06.886Z,998.62
2017-10-29T04:17:47.433Z,998.56
2017-10-29T04:18:27.961Z,998.55
2017-10-29T04:19:08.471Z,998.55
2017-10-29T04:19:49.069Z,998.62
2017-10-29T04:20:29.554Z,998.61
2017-10-29T04:21:10.093Z,998.57
2017-10-29T04:21:50.661Z,998.6
2017-10-29T04:22:31.290Z,998.59
2017-10-29T04:23:11.825Z,998.66
2017-10-29T04:23:52.363Z,998.67
2017-10-29T04:24:32.874Z,998.66
2017-10-29T04:25:13.411Z,998.58
2017-10-29T04:25:53.956Z,998.67
2017-10-29T04:26:34.505Z,998.63
2017-10-29T04:27:15.017Z,998.64
2017-10-29T04:27:55.568Z,998.58
2017-10-29T04:28:36.100Z,998.64
2017-10-29T04:29:16.579Z,998.64
2017-10-29T04:29:57.145Z,998.58
2017-10-29T04:30:37.717Z,998.65
2017-10-29T04:31:18.239Z,998.58
2017-10-29T04:31:58.810Z,998.69
2017-10-29T04:32:39.333Z,998.7
2017-10-29T04:33:19.863Z,998.58
2017-10-29T04:34:00.392Z,998.61
2017-10-29T04:34:40.923Z,998.6
2017-10-29T04:35:21.499Z,998.56
2017-10-29T04:36:02.025Z,998.62
2017-10-29T04:36:42.559Z,998.54
2017-10-29T04:37:23.144Z,998.58
2017-10-29T04:38:03.685Z,998.52
2017-10-29T04:38:44.198Z,998.48
2017-10-29T04:39:24.736Z,998.38
2017-10-29T04:40:05.283Z,998.47
2017-10-29T04:40:45.805Z,998.45
2017-10-29T04:41:26.344Z,998.48
2017-10-29T04:42:06.937Z,998.51
2017-10-29T04:42:47.469Z,998.35
2017-10-29T04:43:28.027Z,998.47
2017-10-29T04:44:08.551Z,998.41
2017-10-29T04:44:49.089Z,998.39
2017-10-29T04:45:29.587Z,998.45
2017-10-29T04:46:10.154Z,998.46
2017-10-29T04:46:50.683Z,998.44
2017-10-29T04:47:31.254Z,998.33
2017-10-29T04:48:11.803Z,998.45
2017-10-29T04:48:52.321Z,998.43
2017-10-29T04:49:32.839Z,998.39
2017-10-29T04:50:14.357Z,998.28
2017-10-29T04:50:54.865Z,998.32
2017-10-29T04:51:35.393Z,998.31
2017-10-29T04:52:15.950Z,998.29
2017-10-29T04:52:56.454Z,998.35
2017-10-29T04:53:37.035Z,998.32
2017-10-29T04:54:17.576Z,998.27
2017-10-29T04:54:58.131Z,998.24
2017-10-29T04:55:38.687Z,998.27
2017-10-29T04:56:19.257Z,998.29
2017-10-29T04:56:59.750Z,998.25
2017-10-29T04:57:40.265Z,998.26
2017-10-29T04:58:20.788Z,998.23
2017-10-29T04:59:01.340Z,998.25
2017-10-29T04:59:41.881Z,998.23
2017-10-29T05:00:22.443Z,998.31
2017-10-29T05:01:02.979Z,998.25
2017-10-29T05:01:43.530Z,998.26
2017-10-29T05:02:24.049Z,998.19
2017-10-29T05:03:04.560Z,998.23
2017-10-29T05:03:45.110Z,998.21
2017-10-29T05:04:25.716Z,998.2
2017-10-29T05:05:06.189Z,998.15
2017-10-29T05:05:46.756Z,998.18
2017-10-29T05:06:27.234Z,998.25
2017-10-29T05:07:07.810Z,998.2
2017-10-29T05:07:48.327Z,998.22
2017-10-29T05:08:28.869Z,998.14
2017-10-29T05:09:09.469Z,998.1
2017-10-29T05:09:49.987Z,998.05
2017-10-29T05:10:30.567Z,998.05
2017-10-29T05:11:11.089Z,998.05
2017-10-29T05:11:51.623Z,998.04
2017-10-29T05:12:32.206Z,997.98
2017-10-29T05:13:12.644Z,997.9
2017-10-29T05:13:53.187Z,997.86
2017-10-29T05:14:33.734Z,997.85
2017-10-29T05:15:14.253Z,997.92
2017-10-29T05:15:54.796Z,998.03
2017-10-29T05:16:35.338Z,997.95
2017-10-29T05:17:15.859Z,997.98
2017-10-29T05:17:56.409Z,997.97
2017-10-29T05:18:36.938Z,997.9
2017-10-29T05:19:17.479Z,997.94
2017-10-29T05:19:58.007Z,997.77
2017-10-29T05:20:38.542Z,997.86
2017-10-29T05:21:19.067Z,997.85
2017-10-29T05:21:59.614Z,997.83
2017-10-29T05:22:40.142Z,997.79
2017-10-29T05:23:20.715Z,997.77
2017-10-29T05:24:01.271Z,997.89
2017-10-29T05:24:41.797Z,997.91
2017-10-29T05:25:22.338Z,997.85
2017-10-29T05:26:02.853Z,997.83
2017-10-29T05:26:43.450Z,997.88
2017-10-29T05:27:23.946Z,997.86
2017-10-29T05:28:04.484Z,997.92
2017-10-29T05:28:45.025Z,997.88
2017-10-29T05:29:25.520Z,997.89
2017-10-29T05:30:06.079Z,997.9
2017-10-29T05:30:46.663Z,997.87
2017-10-29T05:31:27.186Z,997.87
2017-10-29T05:32:07.693Z,997.85
2017-10-29T05:32:48.224Z,997.97
2017-10-29T05:33:28.767Z,997.86
2017-10-29T05:34:09.350Z,997.96
2017-10-29T05:34:49.866Z,997.86
2017-10-29T05:35:30.407Z,997.96
2017-10-29T05:36:10.956Z,998.01
2017-10-29T05:36:51.475Z,997.97
2017-10-29T05:37:32.077Z,997.97
2017-10-29T05:38:12.629Z,997.99
2017-10-29T05:38:53.201Z,998.01
2017-10-29T05:39:33.733Z,997.97
2017-10-29T05:40:14.252Z,998.03
2017-10-29T05:40:54.811Z,997.93
2017-10-29T05:41:35.380Z,997.99
2017-10-29T05:42:15.909Z,997.96
2017-10-29T05:42:56.469Z,997.94
2017-10-29T05:43:36.986Z,997.92
2017-10-29T05:44:17.545Z,997.94
2017-10-29T05:44:58.054Z,997.96
2017-10-29T05:45:38.573Z,998.01
2017-10-29T05:46:19.133Z,997.96
2017-10-29T05:46:59.642Z,998
2017-10-29T05:47:40.195Z,998.03
2017-10-29T05:48:20.731Z,998.02
2017-10-29T05:49:01.265Z,997.96
2017-10-29T05:49:41.823Z,998.04
2017-10-29T05:50:22.342Z,997.9
2017-10-29T05:51:02.915Z,998
2017-10-29T05:51:43.467Z,997.95
2017-10-29T05:52:24.003Z,997.81
2017-10-29T05:53:04.555Z,997.88
2017-10-29T05:53:45.097Z,997.88
2017-10-29T05:54:25.613Z,997.93
2017-10-29T05:55:06.188Z,997.84
2017-10-29T05:55:46.719Z,997.79
2017-10-29T05:56:27.232Z,997.73
2017-10-29T05:57:07.760Z,997.71
2017-10-29T05:57:48.296Z,997.64
2017-10-29T05:58:28.863Z,997.62
2017-10-29T05:59:09.394Z,997.64
2017-10-29T05:59:49.931Z,997.6
2017-10-29T06:00:30.484Z,997.58
2017-10-29T06:01:11.027Z,997.56
2017-10-29T06:01:51.545Z,997.41
2017-10-29T06:02:32.098Z,997.48
2017-10-29T06:03:12.660Z,997.33
2017-10-29T06:03:53.198Z,997.37
2017-10-29T06:04:33.753Z,997.17
2017-10-29T06:05:14.262Z,997.33
2017-10-29T06:05:54.780Z,997.4
2017-10-29T06:06:35.340Z,997.29
2017-10-29T06:07:15.893Z,997.14
2017-10-29T06:07:56.425Z,997.27
2017-10-29T06:08:36.970Z,997.42
2017-10-29T06:09:17.486Z,997.36
2017-10-29T06:09:58.016Z,997.53
2017-10-29T06:10:38.522Z,997.47
2017-10-29T06:11:19.062Z,997.5
2017-10-29T06:11:59.603Z,997.61
2017-10-29T06:12:40.198Z,997.56
2017-10-29T06:13:20.729Z,997.58
2017-10-29T06:14:01.236Z,997.58
2017-10-29T06:14:41.825Z,997.59
2017-10-29T06:15:22.342Z,997.67
2017-10-29T06:16:02.869Z,997.75
2017-10-29T06:16:43.385Z,997.8
2017-10-29T06:17:23.917Z,997.81
2017-10-29T06:18:04.491Z,997.74
2017-10-29T06:18:45.041Z,997.72
2017-10-29T06:19:25.572Z,997.68
2017-10-29T06:20:06.085Z,997.7
2017-10-29T06:20:46.603Z,997.77
2017-10-29T06:21:27.148Z,997.78
2017-10-29T06:22:07.681Z,997.74
2017-10-29T06:22:48.201Z,997.73
2017-10-29T06:23:28.744Z,997.81
2017-10-29T06:24:09.399Z,997.83
2017-10-29T06:24:49.782Z,997.77
2017-10-29T06:25:30.403Z,997.8
2017-10-29T06:26:10.916Z,997.77
2017-10-29T06:26:51.475Z,997.78
2017-10-29T06:27:32.000Z,997.73
2017-10-29T06:28:12.597Z,997.87
2017-10-29T06:28:53.216Z,997.72
2017-10-29T06:29:33.793Z,997.71
2017-10-29T06:30:14.295Z,997.75
2017-10-29T06:30:54.806Z,997.78
2017-10-29T06:31:35.341Z,997.72
2017-10-29T06:32:18.842Z,997.81
2017-10-29T06:32:59.395Z,997.9
2017-10-29T06:33:39.949Z,998.01
2017-10-29T06:34:20.983Z,997.92
2017-10-29T06:35:01.590Z,997.91
2017-10-29T06:35:42.127Z,997.87
2017-10-29T06:36:22.655Z,998.04
2017-10-29T06:37:03.202Z,997.91
2017-10-29T06:37:43.679Z,997.95
2017-10-29T06:38:24.235Z,997.89
2017-10-29T06:39:04.735Z,998
2017-10-29T06:39:45.324Z,997.97
2017-10-29T06:40:25.850Z,998
2017-10-29T06:41:06.401Z,997.88
2017-10-29T06:41:46.904Z,997.94
2017-10-29T06:42:27.495Z,997.92
2017-10-29T06:43:08.021Z,997.95
2017-10-29T06:43:48.577Z,997.95
2017-10-29T06:44:29.130Z,997.86
2017-10-29T06:45:09.741Z,997.89
2017-10-29T06:45:50.244Z,997.92
2017-10-29T06:46:30.790Z,997.92
2017-10-29T06:47:11.346Z,997.79
2017-10-29T06:47:51.988Z,997.98
2017-10-29T06:48:32.438Z,997.97
2017-10-29T06:49:12.943Z,997.91
2017-10-29T06:49:53.454Z,997.87
2017-10-29T06:50:34.061Z,997.93
2017-10-29T06:51:14.553Z,997.84
2017-10-29T06:51:55.095Z,997.98
2017-10-29T06:52:35.668Z,997.95
2017-10-29T06:53:16.206Z,997.94
2017-10-29T06:53:56.777Z,997.94
2017-10-29T06:54:37.270Z,997.99
2017-10-29T06:55:17.807Z,997.99
2017-10-29T06:55:58.401Z,998.09
2017-10-29T06:56:38.955Z,997.97
2017-10-29T06:57:19.455Z,998.08
2017-10-29T06:57:59.981Z,998.07
2017-10-29T06:58:40.545Z,998.07
2017-10-29T06:59:21.036Z,998.11
2017-10-29T07:00:01.569Z,998.04
2017-10-29T07:00:42.169Z,998.07
2017-10-29T07:01:22.710Z,998.25
2017-10-29T07:02:03.273Z,998.04
2017-10-29T07:02:43.809Z,998.08
2017-10-29T07:03:24.406Z,998.09
2017-10-29T07:04:04.973Z,997.98
2017-10-29T07:04:45.488Z,997.97
2017-10-29T07:05:26.056Z,997.98
2017-10-29T07:06:06.639Z,998.01
2017-10-29T07:06:47.189Z,998.07
2017-10-29T07:07:27.699Z,997.95
2017-10-29T07:08:08.894Z,997.99
2017-10-29T07:08:48.876Z,997.99
2017-10-29T07:09:29.481Z,997.99
2017-10-29T07:10:09.969Z,998.08
2017-10-29T07:10:50.552Z,998.16
2017-10-29T07:11:31.111Z,998.02
2017-10-29T07:12:11.629Z,998.09
2017-10-29T07:12:52.227Z,998.06
2017-10-29T07:13:32.756Z,998.05
2017-10-29T07:14:13.330Z,998.13
2017-10-29T07:14:53.837Z,998.13
2017-10-29T07:15:34.664Z,998.08
2017-10-29T07:16:15.279Z,998.04
2017-10-29T07:16:55.810Z,998.17
2017-10-29T07:17:36.456Z,998.1
2017-10-29T07:18:17.112Z,998.15
2017-10-29T07:18:57.832Z,998.07
2017-10-29T07:19:38.367Z,998
2017-10-29T07:20:18.938Z,998.02
2017-10-29T07:20:59.555Z,998
2017-10-29T07:21:40.005Z,998.04
2017-10-29T07:22:20.625Z,998.02
2017-10-29T07:23:01.252Z,997.98
2017-10-29T07:23:41.808Z,998.03
2017-10-29T07:24:22.327Z,998.08
2017-10-29T07:25:02.874Z,997.99
2017-10-29T07:25:43.542Z,998.07
2017-10-29T07:26:24.061Z,998.05
2017-10-29T07:27:04.654Z,998.04
2017-10-29T07:27:45.513Z,998.12
2017-10-29T07:28:26.116Z,998.07
2017-10-29T07:29:06.601Z,998.05
2017-10-29T07:29:47.137Z,998.16
2017-10-29T07:30:27.908Z,998.08
2017-10-29T07:31:08.541Z,998
2017-10-29T07:31:49.107Z,998.16
2017-10-29T07:32:29.634Z,998.15
2017-10-29T07:33:10.096Z,998.11
2017-10-29T07:33:50.774Z,998.15
2017-10-29T07:34:31.270Z,998.16
2017-10-29T07:35:11.820Z,998.09
2017-10-29T07:35:52.390Z,998.08
2017-10-29T07:36:33.152Z,998.15
2017-10-29T07:37:13.767Z,998.12
2017-10-29T07:37:54.275Z,998.03
2017-10-29T07:38:34.828Z,998.11
2017-10-29T07:39:15.334Z,998.04
2017-10-29T07:39:55.887Z,998.1
2017-10-29T07:40:36.615Z,998.03
2017-10-29T07:41:17.122Z,998.16
2017-10-29T07:41:57.638Z,998.09
2017-10-29T07:42:38.550Z,998.11
2017-10-29T07:43:19.086Z,998.06
2017-10-29T07:43:59.650Z,998.11
2017-10-29T07:44:40.230Z,998.09
2017-10-29T07:45:20.719Z,998.13
2017-10-29T07:46:01.259Z,998.12
2017-10-29T07:46:41.954Z,998.17
2017-10-29T07:47:22.463Z,998.08
2017-10-29T07:48:04.015Z,998.1
2017-10-29T07:48:44.545Z,998.14
2017-10-29T07:49:25.152Z,998.12
2017-10-29T07:50:05.738Z,998.12
2017-10-29T07:50:46.244Z,998.13
2017-10-29T07:51:27.612Z,997.94
2017-10-29T07:52:08.117Z,998.16
2017-10-29T07:52:49.393Z,998.18
2017-10-29T07:53:29.979Z,998.23
2017-10-29T07:54:10.564Z,998.21
2017-10-29T07:54:51.080Z,998.22
2017-10-29T07:55:32.352Z,998.23
2017-10-29T07:56:12.939Z,998.25
2017-10-29T07:56:53.505Z,998.24
2017-10-29T07:57:34.069Z,998.22
2017-10-29T07:58:14.681Z,998.21
2017-10-29T07:58:55.340Z,998.31
2017-10-29T07:59:36.451Z,998.33
2017-10-29T08:00:17.135Z,998.37
2017-10-29T08:00:57.551Z,998.38
2017-10-29T08:01:38.187Z,998.4
2017-10-29T08:02:18.768Z,998.36
2017-10-29T08:02:59.306Z,998.37
2017-10-29T08:03:39.858Z,998.4
2017-10-29T08:04:20.440Z,998.37
2017-10-29T08:05:00.962Z,998.35
2017-10-29T08:05:41.630Z,998.39
2017-10-29T08:06:22.108Z,998.35
2017-10-29T08:07:02.739Z,998.38
2017-10-29T08:07:43.250Z,998.25
2017-10-29T08:08:23.825Z,998.35
2017-10-29T08:09:04.345Z,998.4
2017-10-29T08:09:44.981Z,998.26
2017-10-29T08:10:25.614Z,998.35
2017-10-29T08:11:06.350Z,998.46
2017-10-29T08:11:47.167Z,998.3
2017-10-29T08:12:27.902Z,998.28
2017-10-29T08:13:08.439Z,998.35
2017-10-29T08:13:48.959Z,998.33
2017-10-29T08:14:29.702Z,998.24
2017-10-29T08:15:10.243Z,998.2
2017-10-29T08:15:50.897Z,998.31
2017-10-29T08:16:31.422Z,998.33
2017-10-29T08:17:12.010Z,998.29
2017-10-29T08:17:52.522Z,998.32
2017-10-29T08:18:33.034Z,998.29
2017-10-29T08:19:13.680Z,998.36
2017-10-29T08:19:54.259Z,998.3
2017-10-29T08:20:34.791Z,998.25
2017-10-29T08:21:15.352Z,998.29
2017-10-29T08:21:55.870Z,998.37
2017-10-29T08:22:36.448Z,998.38
2017-10-29T08:23:16.994Z,998.36
2017-10-29T08:23:57.506Z,998.37